Terminal Aerodrome Forecast
Issued by NWS

Home | Current Version | Previous Version | Text Only | Print | Product List | Glossary On
Versions: 1 2 3 4 5 6 7 8 9 10 11 12 13 14
000
FTUS43 KDLH 201100
TAFHIB
TAF
KHIB 201125Z 2012/2112 VRB03KT P6SM SKC
     FM201400 29007KT P6SM SCT200
     FM210100 26004KT P6SM FEW200=

USA.gov is the U.S. government's official web portal to all federal, state and local government web resources and services.